sensor_id;sensor_type;location;lat;lon;timestamp;P1;durP1;ratioP1;P2;durP2;ratioP2
920;SDS011;447;51.332;6.778;2023-06-22T00:01:23;4.80;;;4.50;;
920;SDS011;447;51.332;6.778;2023-06-22T00:03:49;4.63;;;4.23;;
920;SDS011;447;51.332;6.778;2023-06-22T00:06:15;4.73;;;4.33;;
920;SDS011;447;51.332;6.778;2023-06-22T00:08:41;4.40;;;4.20;;
920;SDS011;447;51.332;6.778;2023-06-22T00:11:07;4.90;;;4.50;;
920;SDS011;447;51.332;6.778;2023-06-22T00:13:33;4.43;;;4.13;;
920;SDS011;447;51.332;6.778;2023-06-22T00:16:04;4.70;;;4.40;;
920;SDS011;447;51.332;6.778;2023-06-22T00:18:30;4.70;;;4.30;;
920;SDS011;447;51.332;6.778;2023-06-22T00:21:00;4.70;;;4.40;;
920;SDS011;447;51.332;6.778;2023-06-22T00:23:31;4.90;;;4.60;;
920;SDS011;447;51.332;6.778;2023-06-22T00:26:02;4.50;;;4.20;;
920;SDS011;447;51.332;6.778;2023-06-22T00:28:28;4.93;;;4.50;;
920;SDS011;447;51.332;6.778;2023-06-22T00:30:54;4.70;;;4.40;;
920;SDS011;447;51.332;6.778;2023-06-22T00:33:20;4.80;;;4.17;;
920;SDS011;447;51.332;6.778;2023-06-22T00:35:46;4.60;;;4.30;;
920;SDS011;447;51.332;6.778;2023-06-22T00:38:12;6.13;;;4.70;;
920;SDS011;447;51.332;6.778;2023-06-22T00:40:41;5.00;;;4.70;;
920;SDS011;447;51.332;6.778;2023-06-22T00:43:07;5.13;;;4.73;;
920;SDS011;447;51.332;6.778;2023-06-22T00:45:37;4.60;;;4.30;;
920;SDS011;447;51.332;6.778;2023-06-22T00:48:08;5.43;;;4.80;;
920;SDS011;447;51.332;6.778;2023-06-22T00:50:41;6.30;;;4.50;;
920;SDS011;447;51.332;6.778;2023-06-22T00:53:10;5.20;;;4.73;;
920;SDS011;447;51.332;6.778;2023-06-22T00:55:46;4.67;;;4.37;;
920;SDS011;447;51.332;6.778;2023-06-22T00:58:16;5.03;;;4.73;;
920;SDS011;447;51.332;6.778;2023-06-22T01:00:47;5.70;;;5.30;;
920;SDS011;447;51.332;6.778;2023-06-22T01:03:13;4.70;;;4.40;;
920;SDS011;447;51.332;6.778;2023-06-22T01:05:39;5.50;;;5.10;;
920;SDS011;447;51.332;6.778;2023-06-22T01:10:55;5.20;;;4.70;;
920;SDS011;447;51.332;6.778;2023-06-22T01:18:54;4.93;;;4.63;;
920;SDS011;447;51.332;6.778;2023-06-22T01:21:28;5.07;;;4.67;;
920;SDS011;447;51.332;6.778;2023-06-22T01:29:15;4.83;;;4.50;;
920;SDS011;447;51.332;6.778;2023-06-22T01:31:47;5.13;;;4.77;;
920;SDS011;447;51.332;6.778;2023-06-22T01:34:14;5.93;;;4.37;;
920;SDS011;447;51.332;6.778;2023-06-22T01:36:44;5.20;;;4.70;;
920;SDS011;447;51.332;6.778;2023-06-22T01:39:13;5.40;;;5.00;;
920;SDS011;447;51.332;6.778;2023-06-22T01:41:40;4.43;;;4.10;;
920;SDS011;447;51.332;6.778;2023-06-22T01:44:10;5.27;;;4.87;;
920;SDS011;447;51.332;6.778;2023-06-22T01:46:37;4.97;;;4.57;;
920;SDS011;447;51.332;6.778;2023-06-22T01:49:06;5.33;;;4.93;;
920;SDS011;447;51.332;6.778;2023-06-22T01:51:37;5.43;;;5.03;;
920;SDS011;447;51.332;6.778;2023-06-22T01:54:06;5.17;;;4.77;;
920;SDS011;447;51.332;6.778;2023-06-22T01:56:33;5.43;;;5.03;;
920;SDS011;447;51.332;6.778;2023-06-22T02:01:58;4.87;;;4.47;;
920;SDS011;447;51.332;6.778;2023-06-22T02:04:34;5.37;;;5.00;;
920;SDS011;447;51.332;6.778;2023-06-22T02:07:09;5.53;;;5.13;;
920;SDS011;447;51.332;6.778;2023-06-22T02:09:42;4.57;;;4.27;;
920;SDS011;447;51.332;6.778;2023-06-22T02:12:17;4.63;;;4.33;;
920;SDS011;447;51.332;6.778;2023-06-22T02:14:46;5.73;;;5.13;;
920;SDS011;447;51.332;6.778;2023-06-22T02:17:17;4.80;;;4.50;;
920;SDS011;447;51.332;6.778;2023-06-22T02:19:43;5.40;;;5.10;;
920;SDS011;447;51.332;6.778;2023-06-22T02:22:15;5.30;;;4.80;;
920;SDS011;447;51.332;6.778;2023-06-22T02:24:43;6.10;;;5.60;;
920;SDS011;447;51.332;6.778;2023-06-22T02:27:09;5.73;;;5.33;;
920;SDS011;447;51.332;6.778;2023-06-22T02:29:36;5.50;;;5.10;;
920;SDS011;447;51.332;6.778;2023-06-22T02:32:02;5.10;;;4.70;;
920;SDS011;447;51.332;6.778;2023-06-22T02:34:34;5.80;;;5.40;;
920;SDS011;447;51.332;6.778;2023-06-22T02:37:02;5.80;;;5.30;;
920;SDS011;447;51.332;6.778;2023-06-22T02:39:28;5.83;;;5.43;;
920;SDS011;447;51.332;6.778;2023-06-22T02:41:56;5.83;;;5.33;;
920;SDS011;447;51.332;6.778;2023-06-22T02:44:22;5.80;;;5.40;;
920;SDS011;447;51.332;6.778;2023-06-22T02:46:48;5.43;;;5.03;;
920;SDS011;447;51.332;6.778;2023-06-22T02:49:17;4.87;;;4.57;;
920;SDS011;447;51.332;6.778;2023-06-22T02:51:48;5.73;;;5.30;;
920;SDS011;447;51.332;6.778;2023-06-22T02:54:19;6.33;;;5.73;;
920;SDS011;447;51.332;6.778;2023-06-22T02:56:47;5.30;;;4.80;;
920;SDS011;447;51.332;6.778;2023-06-22T02:59:20;4.83;;;4.53;;
920;SDS011;447;51.332;6.778;2023-06-22T03:01:50;5.67;;;5.17;;
920;SDS011;447;51.332;6.778;2023-06-22T03:04:26;5.00;;;4.60;;
920;SDS011;447;51.332;6.778;2023-06-22T03:06:52;5.90;;;5.50;;
920;SDS011;447;51.332;6.778;2023-06-22T03:09:18;5.47;;;4.90;;
920;SDS011;447;51.332;6.778;2023-06-22T03:11:47;5.00;;;4.70;;
920;SDS011;447;51.332;6.778;2023-06-22T03:14:13;6.30;;;5.80;;
920;SDS011;447;51.332;6.778;2023-06-22T03:16:39;5.70;;;5.30;;
920;SDS011;447;51.332;6.778;2023-06-22T03:19:08;6.13;;;5.63;;
920;SDS011;447;51.332;6.778;2023-06-22T03:21:34;5.67;;;5.27;;
920;SDS011;447;51.332;6.778;2023-06-22T03:24:03;5.63;;;5.27;;
920;SDS011;447;51.332;6.778;2023-06-22T03:26:32;5.90;;;5.50;;
920;SDS011;447;51.332;6.778;2023-06-22T03:28:59;6.30;;;5.80;;
920;SDS011;447;51.332;6.778;2023-06-22T03:31:27;5.80;;;5.30;;
920;SDS011;447;51.332;6.778;2023-06-22T03:33:53;5.80;;;5.33;;
920;SDS011;447;51.332;6.778;2023-06-22T03:36:24;5.30;;;4.87;;
920;SDS011;447;51.332;6.778;2023-06-22T03:38:51;5.40;;;4.67;;
920;SDS011;447;51.332;6.778;2023-06-22T03:41:19;5.20;;;4.90;;
920;SDS011;447;51.332;6.778;2023-06-22T03:43:46;5.40;;;4.97;;
920;SDS011;447;51.332;6.778;2023-06-22T03:46:14;5.10;;;4.70;;
920;SDS011;447;51.332;6.778;2023-06-22T03:48:42;5.70;;;5.30;;
920;SDS011;447;51.332;6.778;2023-06-22T03:51:08;5.87;;;5.47;;
920;SDS011;447;51.332;6.778;2023-06-22T03:53:36;5.50;;;5.10;;
920;SDS011;447;51.332;6.778;2023-06-22T03:56:04;5.80;;;5.40;;
920;SDS011;447;51.332;6.778;2023-06-22T03:58:30;5.80;;;5.40;;
920;SDS011;447;51.332;6.778;2023-06-22T04:01:00;5.70;;;5.30;;
920;SDS011;447;51.332;6.778;2023-06-22T04:03:28;5.07;;;4.67;;
920;SDS011;447;51.332;6.778;2023-06-22T04:05:54;5.90;;;5.40;;
920;SDS011;447;51.332;6.778;2023-06-22T04:08:20;5.50;;;5.10;;
920;SDS011;447;51.332;6.778;2023-06-22T04:11:11;8.60;;;6.17;;
920;SDS011;447;51.332;6.778;2023-06-22T04:13:37;6.10;;;5.70;;
920;SDS011;447;51.332;6.778;2023-06-22T04:16:03;6.00;;;5.60;;
920;SDS011;447;51.332;6.778;2023-06-22T04:18:29;6.07;;;5.67;;
920;SDS011;447;51.332;6.778;2023-06-22T04:20:55;5.53;;;5.13;;
920;SDS011;447;51.332;6.778;2023-06-22T04:23:23;5.73;;;5.33;;
920;SDS011;447;51.332;6.778;2023-06-22T04:25:51;5.77;;;5.37;;
920;SDS011;447;51.332;6.778;2023-06-22T04:28:17;6.20;;;5.63;;
920;SDS011;447;51.332;6.778;2023-06-22T04:30:45;5.87;;;5.43;;
920;SDS011;447;51.332;6.778;2023-06-22T04:33:14;5.97;;;5.57;;
920;SDS011;447;51.332;6.778;2023-06-22T04:35:45;6.00;;;5.50;;
920;SDS011;447;51.332;6.778;2023-06-22T04:38:13;5.87;;;5.47;;
920;SDS011;447;51.332;6.778;2023-06-22T04:40:40;5.80;;;5.40;;
920;SDS011;447;51.332;6.778;2023-06-22T04:43:05;5.60;;;5.20;;
920;SDS011;447;51.332;6.778;2023-06-22T04:45:37;6.37;;;5.97;;
920;SDS011;447;51.332;6.778;2023-06-22T04:48:04;5.70;;;5.30;;
920;SDS011;447;51.332;6.778;2023-06-22T04:50:30;6.43;;;5.17;;
920;SDS011;447;51.332;6.778;2023-06-22T04:52:59;5.30;;;5.00;;
920;SDS011;447;51.332;6.778;2023-06-22T04:55:24;5.70;;;5.27;;
920;SDS011;447;51.332;6.778;2023-06-22T04:57:57;5.33;;;4.93;;
920;SDS011;447;51.332;6.778;2023-06-22T05:00:30;5.70;;;5.27;;
920;SDS011;447;51.332;6.778;2023-06-22T05:02:56;6.63;;;6.13;;
920;SDS011;447;51.332;6.778;2023-06-22T05:05:23;6.37;;;5.77;;
920;SDS011;447;51.332;6.778;2023-06-22T05:07:50;5.50;;;5.10;;
920;SDS011;447;51.332;6.778;2023-06-22T05:10:20;6.07;;;5.67;;
920;SDS011;447;51.332;6.778;2023-06-22T05:15:41;5.93;;;5.47;;
920;SDS011;447;51.332;6.778;2023-06-22T05:18:09;5.97;;;5.57;;
920;SDS011;447;51.332;6.778;2023-06-22T05:20:37;5.97;;;5.50;;
920;SDS011;447;51.332;6.778;2023-06-22T05:23:07;6.47;;;5.97;;
920;SDS011;447;51.332;6.778;2023-06-22T05:25:36;5.93;;;5.43;;
920;SDS011;447;51.332;6.778;2023-06-22T05:28:01;5.90;;;5.40;;
920;SDS011;447;51.332;6.778;2023-06-22T05:30:34;6.00;;;5.60;;
920;SDS011;447;51.332;6.778;2023-06-22T05:33:00;5.67;;;5.27;;
920;SDS011;447;51.332;6.778;2023-06-22T05:35:28;5.63;;;5.23;;
920;SDS011;447;51.332;6.778;2023-06-22T05:37:57;6.20;;;5.67;;
920;SDS011;447;51.332;6.778;2023-06-22T05:40:25;6.83;;;6.10;;
920;SDS011;447;51.332;6.778;2023-06-22T05:42:52;5.97;;;5.47;;
920;SDS011;447;51.332;6.778;2023-06-22T05:45:21;5.77;;;5.27;;
920;SDS011;447;51.332;6.778;2023-06-22T05:47:46;5.90;;;5.50;;
920;SDS011;447;51.332;6.778;2023-06-22T05:50:12;6.07;;;5.67;;
920;SDS011;447;51.332;6.778;2023-06-22T05:52:38;6.17;;;5.67;;
920;SDS011;447;51.332;6.778;2023-06-22T05:55:04;6.40;;;5.80;;
920;SDS011;447;51.332;6.778;2023-06-22T05:57:35;5.53;;;5.13;;
920;SDS011;447;51.332;6.778;2023-06-22T06:00:03;5.90;;;5.50;;
920;SDS011;447;51.332;6.778;2023-06-22T06:02:35;6.60;;;6.10;;
920;SDS011;447;51.332;6.778;2023-06-22T06:05:10;6.10;;;5.60;;
920;SDS011;447;51.332;6.778;2023-06-22T06:07:39;6.60;;;5.90;;
920;SDS011;447;51.332;6.778;2023-06-22T06:10:06;6.13;;;5.73;;
920;SDS011;447;51.332;6.778;2023-06-22T06:12:32;7.03;;;6.20;;
920;SDS011;447;51.332;6.778;2023-06-22T06:14:58;6.47;;;5.87;;
920;SDS011;447;51.332;6.778;2023-06-22T06:17:26;6.20;;;5.60;;
920;SDS011;447;51.332;6.778;2023-06-22T06:19:52;6.40;;;5.90;;
920;SDS011;447;51.332;6.778;2023-06-22T06:22:18;5.90;;;5.40;;
920;SDS011;447;51.332;6.778;2023-06-22T06:24:46;6.57;;;6.07;;
920;SDS011;447;51.332;6.778;2023-06-22T06:27:13;5.93;;;5.53;;
920;SDS011;447;51.332;6.778;2023-06-22T06:29:39;6.60;;;6.07;;
920;SDS011;447;51.332;6.778;2023-06-22T06:32:07;5.77;;;5.27;;
920;SDS011;447;51.332;6.778;2023-06-22T06:34:36;6.50;;;6.00;;
920;SDS011;447;51.332;6.778;2023-06-22T06:37:02;6.70;;;6.00;;
920;SDS011;447;51.332;6.778;2023-06-22T06:39:30;6.20;;;5.60;;
920;SDS011;447;51.332;6.778;2023-06-22T06:42:01;6.37;;;5.80;;
920;SDS011;447;51.332;6.778;2023-06-22T06:44:31;8.27;;;6.27;;
920;SDS011;447;51.332;6.778;2023-06-22T06:46:59;7.03;;;6.30;;
920;SDS011;447;51.332;6.778;2023-06-22T06:49:27;6.63;;;6.03;;
920;SDS011;447;51.332;6.778;2023-06-22T06:51:54;7.00;;;6.50;;
920;SDS011;447;51.332;6.778;2023-06-22T06:54:27;8.00;;;6.07;;
920;SDS011;447;51.332;6.778;2023-06-22T06:56:53;6.23;;;5.73;;
920;SDS011;447;51.332;6.778;2023-06-22T06:59:18;6.30;;;5.70;;
920;SDS011;447;51.332;6.778;2023-06-22T07:01:44;6.40;;;5.90;;
920;SDS011;447;51.332;6.778;2023-06-22T07:04:12;6.53;;;6.03;;
920;SDS011;447;51.332;6.778;2023-06-22T07:06:38;8.23;;;6.37;;
920;SDS011;447;51.332;6.778;2023-06-22T07:09:04;7.80;;;7.03;;
920;SDS011;447;51.332;6.778;2023-06-22T07:11:32;6.80;;;6.20;;
920;SDS011;447;51.332;6.778;2023-06-22T07:14:03;6.83;;;6.17;;
920;SDS011;447;51.332;6.778;2023-06-22T07:16:36;6.90;;;6.40;;
920;SDS011;447;51.332;6.778;2023-06-22T07:19:05;6.13;;;5.63;;
920;SDS011;447;51.332;6.778;2023-06-22T07:21:34;7.30;;;6.60;;
920;SDS011;447;51.332;6.778;2023-06-22T07:24:05;7.30;;;6.70;;
920;SDS011;447;51.332;6.778;2023-06-22T07:26:34;6.93;;;6.33;;
920;SDS011;447;51.332;6.778;2023-06-22T07:29:02;6.90;;;6.20;;
920;SDS011;447;51.332;6.778;2023-06-22T07:31:32;7.13;;;6.50;;
920;SDS011;447;51.332;6.778;2023-06-22T07:33:59;7.17;;;6.67;;
920;SDS011;447;51.332;6.778;2023-06-22T07:36:24;7.40;;;6.80;;
920;SDS011;447;51.332;6.778;2023-06-22T07:38:50;6.33;;;5.83;;
920;SDS011;447;51.332;6.778;2023-06-22T07:41:16;7.37;;;6.73;;
920;SDS011;447;51.332;6.778;2023-06-22T07:43:48;7.63;;;6.93;;
920;SDS011;447;51.332;6.778;2023-06-22T07:46:15;6.87;;;6.27;;
920;SDS011;447;51.332;6.778;2023-06-22T07:48:41;8.03;;;6.77;;
920;SDS011;447;51.332;6.778;2023-06-22T07:51:12;6.47;;;5.97;;
920;SDS011;447;51.332;6.778;2023-06-22T07:53:39;6.97;;;6.07;;
920;SDS011;447;51.332;6.778;2023-06-22T07:56:11;7.47;;;6.83;;
920;SDS011;447;51.332;6.778;2023-06-22T07:58:40;6.53;;;5.93;;
920;SDS011;447;51.332;6.778;2023-06-22T08:01:10;6.83;;;5.97;;
920;SDS011;447;51.332;6.778;2023-06-22T08:03:39;7.13;;;6.53;;
920;SDS011;447;51.332;6.778;2023-06-22T08:06:05;7.00;;;6.40;;
920;SDS011;447;51.332;6.778;2023-06-22T08:08:34;7.20;;;6.60;;
920;SDS011;447;51.332;6.778;2023-06-22T08:11:00;7.60;;;6.80;;
920;SDS011;447;51.332;6.778;2023-06-22T08:13:29;8.17;;;7.30;;
920;SDS011;447;51.332;6.778;2023-06-22T08:15:57;7.90;;;7.30;;
920;SDS011;447;51.332;6.778;2023-06-22T08:18:25;8.33;;;7.57;;
920;SDS011;447;51.332;6.778;2023-06-22T08:20:51;7.30;;;6.70;;
920;SDS011;447;51.332;6.778;2023-06-22T08:23:17;7.47;;;6.87;;
920;SDS011;447;51.332;6.778;2023-06-22T08:25:46;8.13;;;7.00;;
920;SDS011;447;51.332;6.778;2023-06-22T08:28:15;7.27;;;6.67;;
920;SDS011;447;51.332;6.778;2023-06-22T08:30:41;7.67;;;7.00;;
920;SDS011;447;51.332;6.778;2023-06-22T08:33:07;8.63;;;7.83;;
920;SDS011;447;51.332;6.778;2023-06-22T08:35:36;8.20;;;7.47;;
920;SDS011;447;51.332;6.778;2023-06-22T08:38:01;8.10;;;7.40;;
920;SDS011;447;51.332;6.778;2023-06-22T08:40:27;7.07;;;6.57;;
920;SDS011;447;51.332;6.778;2023-06-22T08:42:54;7.47;;;6.87;;
920;SDS011;447;51.332;6.778;2023-06-22T08:45:21;7.00;;;6.50;;
920;SDS011;447;51.332;6.778;2023-06-22T08:47:49;8.00;;;7.30;;
920;SDS011;447;51.332;6.778;2023-06-22T08:50:15;7.20;;;6.60;;
920;SDS011;447;51.332;6.778;2023-06-22T08:52:44;7.97;;;7.17;;
920;SDS011;447;51.332;6.778;2023-06-22T08:55:14;8.30;;;7.20;;
920;SDS011;447;51.332;6.778;2023-06-22T08:57:40;7.90;;;7.30;;
920;SDS011;447;51.332;6.778;2023-06-22T09:00:06;7.77;;;7.07;;
920;SDS011;447;51.332;6.778;2023-06-22T09:02:47;7.57;;;6.87;;
920;SDS011;447;51.332;6.778;2023-06-22T09:05:16;8.30;;;7.60;;
920;SDS011;447;51.332;6.778;2023-06-22T09:07:43;8.97;;;8.27;;
920;SDS011;447;51.332;6.778;2023-06-22T09:10:09;7.27;;;6.67;;
920;SDS011;447;51.332;6.778;2023-06-22T09:12:35;7.80;;;7.10;;
920;SDS011;447;51.332;6.778;2023-06-22T09:15:04;8.57;;;7.87;;
920;SDS011;447;51.332;6.778;2023-06-22T09:17:32;7.60;;;7.10;;
920;SDS011;447;51.332;6.778;2023-06-22T09:20:01;8.77;;;8.10;;
920;SDS011;447;51.332;6.778;2023-06-22T09:22:33;8.70;;;7.90;;
920;SDS011;447;51.332;6.778;2023-06-22T09:25:02;9.13;;;8.33;;
920;SDS011;447;51.332;6.778;2023-06-22T09:27:28;8.20;;;7.33;;
920;SDS011;447;51.332;6.778;2023-06-22T09:29:54;9.63;;;7.90;;
920;SDS011;447;51.332;6.778;2023-06-22T09:32:20;8.70;;;8.00;;
920;SDS011;447;51.332;6.778;2023-06-22T09:34:49;8.50;;;7.80;;
920;SDS011;447;51.332;6.778;2023-06-22T09:37:20;9.87;;;8.83;;
920;SDS011;447;51.332;6.778;2023-06-22T09:39:46;8.80;;;8.10;;
920;SDS011;447;51.332;6.778;2023-06-22T09:42:14;8.47;;;7.87;;
920;SDS011;447;51.332;6.778;2023-06-22T09:44:40;8.53;;;7.73;;
920;SDS011;447;51.332;6.778;2023-06-22T09:47:06;10.50;;;9.43;;
920;SDS011;447;51.332;6.778;2023-06-22T09:49:32;9.20;;;8.30;;
920;SDS011;447;51.332;6.778;2023-06-22T09:52:03;8.67;;;7.97;;
920;SDS011;447;51.332;6.778;2023-06-22T09:54:32;10.23;;;8.93;;
920;SDS011;447;51.332;6.778;2023-06-22T09:57:05;8.50;;;7.73;;
920;SDS011;447;51.332;6.778;2023-06-22T09:59:35;10.03;;;9.23;;
920;SDS011;447;51.332;6.778;2023-06-22T10:02:01;8.70;;;7.90;;
920;SDS011;447;51.332;6.778;2023-06-22T10:04:27;9.23;;;8.53;;
920;SDS011;447;51.332;6.778;2023-06-22T10:06:56;9.20;;;8.50;;
920;SDS011;447;51.332;6.778;2023-06-22T10:09:24;9.77;;;8.87;;
920;SDS011;447;51.332;6.778;2023-06-22T10:11:52;10.10;;;9.10;;
920;SDS011;447;51.332;6.778;2023-06-22T10:14:18;9.50;;;8.60;;
920;SDS011;447;51.332;6.778;2023-06-22T10:16:44;9.43;;;8.63;;
920;SDS011;447;51.332;6.778;2023-06-22T10:19:10;9.00;;;8.27;;
920;SDS011;447;51.332;6.778;2023-06-22T10:21:36;9.93;;;9.10;;
920;SDS011;447;51.332;6.778;2023-06-22T10:24:05;9.33;;;8.63;;
920;SDS011;447;51.332;6.778;2023-06-22T10:26:35;9.57;;;8.77;;
920;SDS011;447;51.332;6.778;2023-06-22T10:29:02;8.77;;;8.17;;
920;SDS011;447;51.332;6.778;2023-06-22T10:31:28;10.30;;;9.50;;
920;SDS011;447;51.332;6.778;2023-06-22T10:33:59;9.57;;;8.83;;
920;SDS011;447;51.332;6.778;2023-06-22T10:36:25;8.97;;;8.27;;
920;SDS011;447;51.332;6.778;2023-06-22T10:38:55;11.07;;;9.93;;
920;SDS011;447;51.332;6.778;2023-06-22T10:41:24;9.90;;;9.07;;
920;SDS011;447;51.332;6.778;2023-06-22T10:43:50;10.50;;;9.50;;
920;SDS011;447;51.332;6.778;2023-06-22T10:46:16;10.60;;;9.80;;
920;SDS011;447;51.332;6.778;2023-06-22T10:48:44;10.53;;;9.63;;
920;SDS011;447;51.332;6.778;2023-06-22T10:51:10;10.33;;;9.40;;
920;SDS011;447;51.332;6.778;2023-06-22T10:53:36;10.73;;;9.73;;
920;SDS011;447;51.332;6.778;2023-06-22T10:56:04;10.00;;;9.20;;
920;SDS011;447;51.332;6.778;2023-06-22T10:58:30;10.43;;;9.60;;
920;SDS011;447;51.332;6.778;2023-06-22T11:00:56;10.37;;;9.60;;
920;SDS011;447;51.332;6.778;2023-06-22T11:03:24;10.10;;;9.40;;
920;SDS011;447;51.332;6.778;2023-06-22T11:05:52;9.90;;;9.10;;
920;SDS011;447;51.332;6.778;2023-06-22T11:08:18;9.67;;;8.97;;
920;SDS011;447;51.332;6.778;2023-06-22T11:10:44;10.27;;;9.27;;
920;SDS011;447;51.332;6.778;2023-06-22T11:13:14;10.00;;;9.17;;
920;SDS011;447;51.332;6.778;2023-06-22T11:15:40;10.17;;;9.43;;
920;SDS011;447;51.332;6.778;2023-06-22T11:18:08;10.57;;;9.67;;
920;SDS011;447;51.332;6.778;2023-06-22T11:20:39;14.20;;;10.50;;
920;SDS011;447;51.332;6.778;2023-06-22T11:23:06;17.00;;;10.90;;
920;SDS011;447;51.332;6.778;2023-06-22T11:25:36;11.53;;;10.53;;
920;SDS011;447;51.332;6.778;2023-06-22T11:28:03;10.67;;;9.60;;
920;SDS011;447;51.332;6.778;2023-06-22T11:30:30;10.40;;;9.50;;
920;SDS011;447;51.332;6.778;2023-06-22T11:32:58;11.07;;;9.97;;
920;SDS011;447;51.332;6.778;2023-06-22T11:38:16;10.50;;;9.60;;
920;SDS011;447;51.332;6.778;2023-06-22T11:40:42;10.33;;;9.43;;
920;SDS011;447;51.332;6.778;2023-06-22T11:43:13;9.80;;;9.00;;
920;SDS011;447;51.332;6.778;2023-06-22T11:45:42;10.13;;;9.33;;
920;SDS011;447;51.332;6.778;2023-06-22T11:48:11;10.73;;;9.63;;
920;SDS011;447;51.332;6.778;2023-06-22T11:50:37;10.33;;;9.43;;
920;SDS011;447;51.332;6.778;2023-06-22T11:53:03;9.93;;;8.87;;
920;SDS011;447;51.332;6.778;2023-06-22T11:55:31;11.50;;;10.40;;
920;SDS011;447;51.332;6.778;2023-06-22T11:58:02;11.10;;;9.90;;
920;SDS011;447;51.332;6.778;2023-06-22T12:00:30;11.30;;;10.30;;
920;SDS011;447;51.332;6.778;2023-06-22T12:02:56;12.67;;;11.47;;
920;SDS011;447;51.332;6.778;2023-06-22T12:05:24;10.40;;;9.40;;
920;SDS011;447;51.332;6.778;2023-06-22T12:07:50;10.70;;;9.57;;
920;SDS011;447;51.332;6.778;2023-06-22T12:10:18;11.73;;;10.70;;
920;SDS011;447;51.332;6.778;2023-06-22T12:12:51;14.60;;;10.50;;
920;SDS011;447;51.332;6.778;2023-06-22T12:15:17;10.63;;;9.67;;
920;SDS011;447;51.332;6.778;2023-06-22T12:17:45;11.60;;;10.60;;
920;SDS011;447;51.332;6.778;2023-06-22T12:20:15;11.50;;;10.40;;
920;SDS011;447;51.332;6.778;2023-06-22T12:22:44;11.83;;;10.83;;
920;SDS011;447;51.332;6.778;2023-06-22T12:25:10;12.30;;;11.10;;
920;SDS011;447;51.332;6.778;2023-06-22T12:27:36;11.93;;;10.73;;
920;SDS011;447;51.332;6.778;2023-06-22T12:30:03;12.07;;;10.87;;
920;SDS011;447;51.332;6.778;2023-06-22T12:32:32;12.60;;;11.37;;
920;SDS011;447;51.332;6.778;2023-06-22T12:34:58;11.87;;;10.83;;
920;SDS011;447;51.332;6.778;2023-06-22T12:37:42;11.67;;;10.67;;
920;SDS011;447;51.332;6.778;2023-06-22T12:40:11;10.63;;;9.70;;
920;SDS011;447;51.332;6.778;2023-06-22T12:42:37;11.97;;;10.30;;
920;SDS011;447;51.332;6.778;2023-06-22T12:45:03;12.33;;;11.13;;
920;SDS011;447;51.332;6.778;2023-06-22T12:47:34;11.50;;;10.40;;
920;SDS011;447;51.332;6.778;2023-06-22T12:50:00;11.63;;;10.63;;
920;SDS011;447;51.332;6.778;2023-06-22T12:52:26;11.43;;;10.33;;
920;SDS011;447;51.332;6.778;2023-06-22T12:54:52;10.63;;;9.73;;
920;SDS011;447;51.332;6.778;2023-06-22T12:57:19;12.40;;;11.40;;
920;SDS011;447;51.332;6.778;2023-06-22T12:59:47;12.27;;;10.83;;
920;SDS011;447;51.332;6.778;2023-06-22T13:02:15;11.83;;;10.20;;
920;SDS011;447;51.332;6.778;2023-06-22T13:04:41;12.03;;;10.80;;
920;SDS011;447;51.332;6.778;2023-06-22T13:07:08;12.53;;;11.47;;
920;SDS011;447;51.332;6.778;2023-06-22T13:09:37;10.77;;;9.87;;
920;SDS011;447;51.332;6.778;2023-06-22T13:12:03;12.50;;;11.40;;
920;SDS011;447;51.332;6.778;2023-06-22T13:14:31;12.90;;;11.80;;
920;SDS011;447;51.332;6.778;2023-06-22T13:17:03;13.43;;;12.13;;
920;SDS011;447;51.332;6.778;2023-06-22T13:19:31;13.30;;;12.10;;
920;SDS011;447;51.332;6.778;2023-06-22T13:22:00;11.97;;;10.87;;
920;SDS011;447;51.332;6.778;2023-06-22T13:24:29;11.97;;;10.97;;
920;SDS011;447;51.332;6.778;2023-06-22T13:26:55;11.67;;;10.77;;
920;SDS011;447;51.332;6.778;2023-06-22T13:29:23;12.53;;;11.47;;
920;SDS011;447;51.332;6.778;2023-06-22T13:31:49;12.73;;;11.20;;
920;SDS011;447;51.332;6.778;2023-06-22T13:34:15;12.27;;;11.00;;
920;SDS011;447;51.332;6.778;2023-06-22T13:36:46;12.10;;;11.10;;
920;SDS011;447;51.332;6.778;2023-06-22T13:39:12;12.40;;;11.27;;
920;SDS011;447;51.332;6.778;2023-06-22T13:41:38;13.17;;;12.07;;
920;SDS011;447;51.332;6.778;2023-06-22T13:44:03;12.40;;;11.20;;
920;SDS011;447;51.332;6.778;2023-06-22T13:46:29;12.10;;;11.20;;
920;SDS011;447;51.332;6.778;2023-06-22T13:48:58;14.40;;;13.20;;
920;SDS011;447;51.332;6.778;2023-06-22T13:51:28;12.90;;;11.80;;
920;SDS011;447;51.332;6.778;2023-06-22T13:53:57;13.60;;;12.40;;
920;SDS011;447;51.332;6.778;2023-06-22T13:56:25;13.93;;;12.83;;
920;SDS011;447;51.332;6.778;2023-06-22T13:58:58;14.17;;;12.87;;
920;SDS011;447;51.332;6.778;2023-06-22T14:01:24;14.37;;;12.90;;
920;SDS011;447;51.332;6.778;2023-06-22T14:03:54;14.00;;;12.70;;
920;SDS011;447;51.332;6.778;2023-06-22T14:06:23;14.43;;;13.20;;
920;SDS011;447;51.332;6.778;2023-06-22T14:08:51;13.97;;;12.77;;
920;SDS011;447;51.332;6.778;2023-06-22T14:11:20;14.10;;;12.80;;
920;SDS011;447;51.332;6.778;2023-06-22T14:13:45;13.23;;;12.13;;
920;SDS011;447;51.332;6.778;2023-06-22T14:16:11;12.70;;;11.47;;
920;SDS011;447;51.332;6.778;2023-06-22T14:18:37;13.37;;;12.30;;
920;SDS011;447;51.332;6.778;2023-06-22T14:21:03;12.93;;;11.83;;
920;SDS011;447;51.332;6.778;2023-06-22T14:23:29;14.07;;;12.77;;
920;SDS011;447;51.332;6.778;2023-06-22T14:25:55;15.80;;;14.40;;
920;SDS011;447;51.332;6.778;2023-06-22T14:28:21;13.67;;;12.57;;
920;SDS011;447;51.332;6.778;2023-06-22T14:30:49;14.70;;;13.30;;
920;SDS011;447;51.332;6.778;2023-06-22T14:33:18;13.60;;;12.40;;
920;SDS011;447;51.332;6.778;2023-06-22T14:35:47;14.80;;;13.50;;
920;SDS011;447;51.332;6.778;2023-06-22T14:38:20;13.97;;;12.87;;
920;SDS011;447;51.332;6.778;2023-06-22T14:40:46;14.60;;;13.40;;
920;SDS011;447;51.332;6.778;2023-06-22T14:43:12;14.10;;;12.80;;
920;SDS011;447;51.332;6.778;2023-06-22T14:45:45;14.30;;;13.10;;
920;SDS011;447;51.332;6.778;2023-06-22T14:48:11;14.37;;;13.13;;
920;SDS011;447;51.332;6.778;2023-06-22T14:50:39;14.57;;;13.27;;
920;SDS011;447;51.332;6.778;2023-06-22T14:53:07;13.23;;;12.13;;
920;SDS011;447;51.332;6.778;2023-06-22T14:55:38;14.90;;;13.70;;
920;SDS011;447;51.332;6.778;2023-06-22T14:58:06;15.17;;;13.97;;
920;SDS011;447;51.332;6.778;2023-06-22T15:00:35;15.03;;;13.90;;
920;SDS011;447;51.332;6.778;2023-06-22T15:03:01;14.40;;;13.23;;
920;SDS011;447;51.332;6.778;2023-06-22T15:05:30;14.33;;;13.00;;
920;SDS011;447;51.332;6.778;2023-06-22T15:07:56;16.13;;;14.60;;
920;SDS011;447;51.332;6.778;2023-06-22T15:10:22;14.80;;;13.60;;
920;SDS011;447;51.332;6.778;2023-06-22T15:12:53;14.60;;;13.30;;
920;SDS011;447;51.332;6.778;2023-06-22T15:15:22;14.10;;;12.80;;
920;SDS011;447;51.332;6.778;2023-06-22T15:17:47;14.23;;;13.03;;
920;SDS011;447;51.332;6.778;2023-06-22T15:20:13;16.07;;;14.67;;
920;SDS011;447;51.332;6.778;2023-06-22T15:22:39;14.13;;;13.03;;
920;SDS011;447;51.332;6.778;2023-06-22T15:25:05;15.23;;;13.83;;
920;SDS011;447;51.332;6.778;2023-06-22T15:27:31;15.30;;;14.00;;
920;SDS011;447;51.332;6.778;2023-06-22T15:29:57;16.37;;;14.93;;
920;SDS011;447;51.332;6.778;2023-06-22T15:32:25;15.57;;;14.17;;
920;SDS011;447;51.332;6.778;2023-06-22T15:34:51;14.10;;;12.97;;
920;SDS011;447;51.332;6.778;2023-06-22T15:37:19;14.87;;;13.57;;
920;SDS011;447;51.332;6.778;2023-06-22T15:39:47;15.03;;;13.90;;
920;SDS011;447;51.332;6.778;2023-06-22T15:42:18;14.97;;;13.77;;
920;SDS011;447;51.332;6.778;2023-06-22T15:44:44;14.17;;;13.07;;
920;SDS011;447;51.332;6.778;2023-06-22T15:47:14;14.87;;;13.67;;
920;SDS011;447;51.332;6.778;2023-06-22T15:49:41;14.27;;;12.97;;
920;SDS011;447;51.332;6.778;2023-06-22T15:52:07;15.93;;;14.70;;
920;SDS011;447;51.332;6.778;2023-06-22T15:54:33;14.53;;;13.40;;
920;SDS011;447;51.332;6.778;2023-06-22T15:57:01;14.30;;;13.10;;
920;SDS011;447;51.332;6.778;2023-06-22T15:59:27;15.43;;;14.03;;
920;SDS011;447;51.332;6.778;2023-06-22T16:01:53;15.10;;;13.90;;
920;SDS011;447;51.332;6.778;2023-06-22T16:04:20;15.80;;;14.40;;